Time;durP1;ratioP1;P1;durP2;ratioP2;P2;SDS_P1;SDS_P2;PMS_P1;PMS_P2;Temp;Humidity;BMP_temperature;BMP_pressure;BME280_temperature;BME280_humidity;BME280_pressure;Samples;Min_cycle;Max_cycle;Signal;HPM_P1;HPM_P2
2022/04/15 00:01:44;;;;;;;0.10;0.10;;;10.10;99.90;;;;;;4982382;28;20205;-69
2022/04/15 00:04:11;;;;;;;0.10;0.10;;;10.10;99.90;;;;;;4975953;28;20224;-69
2022/04/15 00:06:39;;;;;;;0.10;0.10;;;10.10;99.90;;;;;;4986065;28;20205;-70
2022/04/15 00:09:06;;;;;;;0.10;0.10;;;10.10;99.90;;;;;;4981593;28;20211;-70
2022/04/15 00:11:33;;;;;;;0.10;0.10;;;10.10;99.90;;;;;;4982159;28;20197;-70
2022/04/15 00:14:01;;;;;;;0.10;0.10;;;10.10;99.90;;;;;;4982334;28;20224;-69
2022/04/15 00:16:27;;;;;;;0.10;0.10;;;10.10;99.90;;;;;;4983419;28;20208;-69
2022/04/15 00:18:54;;;;;;;0.10;0.10;;;10.10;99.90;;;;;;4983389;28;20241;-71
2022/04/15 00:21:21;;;;;;;0.10;0.10;;;10.10;99.90;;;;;;4981565;28;20213;-70
2022/04/15 00:23:54;;;;;;;0.10;0.10;;;10.10;99.90;;;;;;4983325;28;20222;-68
2022/04/15 00:26:21;;;;;;;0.10;0.10;;;10.10;99.90;;;;;;4965291;28;20212;-68
2022/04/15 00:28:49;;;;;;;0.10;0.10;;;10.10;99.90;;;;;;4963942;28;20212;-68
2022/04/15 00:31:16;;;;;;;0.10;0.10;;;10.10;99.90;;;;;;4977666;28;20202;-70
2022/04/15 00:33:43;;;;;;;0.10;0.10;;;10.10;99.90;;;;;;4980375;28;20229;-70
2022/04/15 00:36:10;;;;;;;0.10;0.10;;;10.10;99.90;;;;;;4983279;28;20205;-69
2022/04/15 00:38:37;;;;;;;0.10;0.10;;;10.10;99.90;;;;;;4980753;28;20243;-69
2022/04/15 00:41:06;;;;;;;0.10;0.10;;;10.10;99.90;;;;;;4968786;28;20209;-69
2022/04/15 00:43:33;;;;;;;0.10;0.10;;;10.10;99.90;;;;;;4984798;28;20275;-69
2022/04/15 00:46:07;;;;;;;0.10;0.10;;;10.00;99.90;;;;;;4985666;28;20235;-69
2022/04/15 00:48:35;;;;;;;0.10;0.10;;;10.00;99.90;;;;;;4983937;28;20280;-68
2022/04/15 00:51:03;;;;;;;0.10;0.10;;;10.00;99.90;;;;;;4967816;28;20208;-69
2022/04/15 00:53:31;;;;;;;0.10;0.10;;;9.90;99.90;;;;;;4983360;28;20241;-71
2022/04/15 00:56:01;;;;;;;0.10;0.10;;;9.90;99.90;;;;;;4981835;28;20209;-69
2022/04/15 00:58:34;;;;;;;0.10;0.10;;;9.80;99.90;;;;;;4983181;28;20396;-69
2022/04/15 01:01:01;;;;;;;0.10;0.10;;;9.80;99.90;;;;;;4983704;28;20209;-69
2022/04/15 01:03:30;;;;;;;0.10;0.10;;;9.70;99.90;;;;;;4979106;28;20235;-69
2022/04/15 01:05:59;;;;;;;0.10;0.10;;;9.70;99.90;;;;;;4981630;28;20225;-69
2022/04/15 01:08:29;;;;;;;0.10;0.10;;;9.70;99.90;;;;;;4968633;28;20213;-70
2022/04/15 01:10:58;;;;;;;0.10;0.10;;;9.50;99.90;;;;;;4983033;28;20209;-69
2022/04/15 01:13:26;;;;;;;0.10;0.10;;;9.30;99.90;;;;;;4982943;28;20664;-70
2022/04/15 01:15:57;;;;;;;0.10;0.10;;;9.50;99.90;;;;;;4982348;28;20620;-70
2022/04/15 01:18:24;;;;;;;0.10;0.10;;;9.50;99.90;;;;;;4983667;28;20205;-70
2022/04/15 01:20:53;;;;;;;0.10;0.10;;;9.60;99.90;;;;;;4980732;28;20206;-69
2022/04/15 01:23:22;;;;;;;0.10;0.10;;;;;;;;;;4989538;28;20654;-70
2022/04/15 01:25:49;;;;;;;0.10;0.10;;;9.20;99.90;;;;;;4976741;28;20635;-69
2022/04/15 01:28:19;;;;;;;0.10;0.10;;;8.90;99.90;;;;;;4967948;28;20268;-69
2022/04/15 01:30:47;;;;;;;0.10;0.10;;;;;;;;;;4984206;28;20609;-70
2022/04/15 01:33:14;;;;;;;0.10;0.10;;;;;;;;;;4984901;28;20670;-70
2022/04/15 01:35:41;;;;;;;0.10;0.10;;;;;;;;;;4985476;28;20663;-70
2022/04/15 01:38:10;;;;;;;0.10;0.10;;;;;;;;;;4967260;28;20616;-70
2022/04/15 01:40:39;;;;;;;0.10;0.10;;;;;;;;;;4982828;28;20625;-70
2022/04/15 01:43:07;;;;;;;0.10;0.10;;;;;;;;;;4999962;28;20656;-70
2022/04/15 01:45:35;;;;;;;0.10;0.10;;;8.70;99.90;;;;;;4982725;28;21224;-70
2022/04/15 01:48:02;;;;;;;0.10;0.10;;;8.70;99.90;;;;;;4982285;28;20640;-70
2022/04/15 01:50:30;;;;;;;0.10;0.10;;;8.60;99.90;;;;;;4981925;28;20634;-69
2022/04/15 01:52:58;;;;;;;0.10;0.10;;;8.60;99.90;;;;;;4981727;28;20632;-70
2022/04/15 01:55:25;;;;;;;0.10;0.10;;;8.60;99.90;;;;;;4971919;28;20656;-70
2022/04/15 01:57:54;;;;;;;0.10;0.10;;;8.60;99.90;;;;;;4968139;28;20651;-70
2022/04/15 02:00:21;;;;;;;0.10;0.10;;;8.50;99.90;;;;;;4966457;28;20637;-70
2022/04/15 02:02:48;;;;;;;0.10;0.10;;;8.50;99.90;;;;;;4980995;28;20758;-70
2022/04/15 02:05:15;;;;;;;0.10;0.10;;;8.50;99.90;;;;;;4982624;28;20619;-69
2022/04/15 02:07:42;;;;;;;0.10;0.10;;;8.50;99.90;;;;;;4983278;28;20715;-70
2022/04/15 02:10:11;;;;;;;0.10;0.10;;;8.50;99.90;;;;;;4986030;28;20682;-70
2022/04/15 02:12:37;;;;;;;0.10;0.10;;;8.50;99.90;;;;;;4980472;28;20651;-69
2022/04/15 02:15:07;;;;;;;0.10;0.10;;;8.50;99.90;;;;;;4983451;28;20746;-68
2022/04/15 02:17:34;;;;;;;0.10;0.10;;;8.50;99.90;;;;;;4981257;28;20636;-69
2022/04/15 02:20:02;;;;;;;0.10;0.10;;;8.50;99.90;;;;;;4979398;28;20633;-69
2022/04/15 02:22:29;;;;;;;0.10;0.10;;;;;;;;;;4982122;28;20615;-69
2022/04/15 02:24:56;;;;;;;0.10;0.10;;;8.50;99.90;;;;;;4982294;28;20672;-70
2022/04/15 02:27:23;;;;;;;0.10;0.10;;;8.50;99.90;;;;;;4983209;28;20636;-70
2022/04/15 02:29:50;;;;;;;0.10;0.10;;;8.50;99.90;;;;;;4982639;28;20616;-70
2022/04/15 02:32:19;;;;;;;0.10;0.10;;;8.50;99.90;;;;;;4982349;28;20632;-69
2022/04/15 02:34:46;;;;;;;0.10;0.10;;;8.50;99.90;;;;;;4982573;28;20671;-70
2022/04/15 02:37:13;;;;;;;0.10;0.10;;;8.50;99.90;;;;;;4980874;28;20628;-69
2022/04/15 02:39:41;;;;;;;0.10;0.10;;;;;;;;;;4969014;28;20624;-70
2022/04/15 02:42:09;;;;;;;0.10;0.10;;;8.50;99.90;;;;;;4984853;28;20699;-69
2022/04/15 02:44:38;;;;;;;0.10;0.10;;;8.50;99.90;;;;;;4985189;28;20718;-69
2022/04/15 02:47:06;;;;;;;0.13;0.13;;;8.60;99.90;;;;;;4983139;28;20671;-70
2022/04/15 02:49:34;;;;;;;0.10;0.10;;;8.60;99.90;;;;;;4987803;28;20636;-69
2022/04/15 02:52:02;;;;;;;0.10;0.10;;;8.60;99.90;;;;;;4968262;28;20628;-69
2022/04/15 02:54:29;;;;;;;0.10;0.10;;;8.60;99.90;;;;;;4965110;28;20668;-68
2022/04/15 02:56:56;;;;;;;0.10;0.10;;;8.60;99.90;;;;;;4987201;28;20616;-69
2022/04/15 02:59:23;;;;;;;0.10;0.10;;;8.60;99.90;;;;;;4981779;28;20624;-69
2022/04/15 03:01:50;;;;;;;0.20;0.20;;;8.60;99.90;;;;;;4979872;28;20624;-69
2022/04/15 03:04:17;;;;;;;0.10;0.10;;;8.60;99.90;;;;;;4973964;28;20682;-69
2022/04/15 03:06:46;;;;;;;0.10;0.10;;;8.60;99.90;;;;;;4980352;28;20628;-69
2022/04/15 03:09:13;;;;;;;0.10;0.10;;;8.60;99.90;;;;;;4982129;28;20624;-69
2022/04/15 03:11:40;;;;;;;0.10;0.10;;;8.60;99.90;;;;;;4983688;28;20612;-69
2022/04/15 03:14:07;;;;;;;0.10;0.10;;;8.60;99.90;;;;;;4981556;28;20659;-69
2022/04/15 03:16:35;;;;;;;0.10;0.10;;;8.60;99.90;;;;;;4983414;28;20651;-69
2022/04/15 03:19:02;;;;;;;0.10;0.10;;;8.60;99.90;;;;;;4983471;28;20654;-69
2022/04/15 03:21:29;;;;;;;0.10;0.10;;;8.60;99.90;;;;;;4980873;28;20600;-69
2022/04/15 03:23:57;;;;;;;0.10;0.10;;;8.60;99.90;;;;;;4983561;28;20652;-69
2022/04/15 03:26:25;;;;;;;0.17;0.17;;;8.50;99.90;;;;;;4967063;28;20666;-69
2022/04/15 03:28:52;;;;;;;0.10;0.10;;;8.60;99.90;;;;;;4980171;28;20616;-70
2022/04/15 03:31:19;;;;;;;0.10;0.10;;;8.60;99.90;;;;;;4987206;28;20628;-69
2022/04/15 03:33:46;;;;;;;0.10;0.10;;;8.60;99.90;;;;;;4987289;28;20656;-70
2022/04/15 03:36:14;;;;;;;0.10;0.10;;;8.60;99.90;;;;;;4982868;28;20661;-70
2022/04/15 03:38:41;;;;;;;0.10;0.10;;;8.60;99.90;;;;;;4983829;28;20625;-70
2022/04/15 03:41:10;;;;;;;0.13;0.13;;;8.60;99.90;;;;;;4967059;28;20648;-70
2022/04/15 03:43:37;;;;;;;0.10;0.10;;;8.50;99.90;;;;;;4969449;28;20660;-70
2022/04/15 03:46:04;;;;;;;0.10;0.10;;;8.60;99.90;;;;;;4964380;28;20664;-70
2022/04/15 03:48:31;;;;;;;0.10;0.10;;;8.60;99.90;;;;;;4983956;28;21037;-70
2022/04/15 03:50:58;;;;;;;0.10;0.10;;;8.60;99.90;;;;;;4965270;28;20636;-70
2022/04/15 03:53:26;;;;;;;0.10;0.10;;;8.60;99.90;;;;;;4968292;28;20785;-70
2022/04/15 03:55:52;;;;;;;0.13;0.13;;;8.50;99.90;;;;;;4983554;28;20666;-70
2022/04/15 03:58:21;;;;;;;0.10;0.10;;;8.50;99.90;;;;;;4972447;28;20635;-70
2022/04/15 04:00:48;;;;;;;0.10;0.10;;;8.50;99.90;;;;;;4985940;28;20683;-70
2022/04/15 04:03:16;;;;;;;0.10;0.10;;;8.50;99.90;;;;;;4969272;28;20660;-70
2022/04/15 04:05:43;;;;;;;0.10;0.10;;;8.50;99.90;;;;;;4979651;28;20675;-70
2022/04/15 04:12:12;;;;;;;0.20;0.20;;;;;;;;;;4945351;28;20621;-70
2022/04/15 04:14:40;;;;;;;0.10;0.10;;;8.50;99.90;;;;;;4981360;28;20675;-71
2022/04/15 04:17:08;;;;;;;0.10;0.10;;;8.50;99.90;;;;;;4984862;28;20600;-70
2022/04/15 04:19:36;;;;;;;0.10;0.10;;;8.50;99.90;;;;;;4988033;28;20616;-70
2022/04/15 04:22:04;;;;;;;0.10;0.10;;;8.50;99.90;;;;;;4970996;28;20635;-69
2022/04/15 04:24:31;;;;;;;0.10;0.10;;;8.50;99.90;;;;;;4988158;28;20660;-69
2022/04/15 04:26:58;;;;;;;0.10;0.10;;;8.50;99.90;;;;;;4990404;28;20636;-69
2022/04/15 04:29:25;;;;;;;0.10;0.10;;;8.50;99.90;;;;;;4986695;28;20616;-69
2022/04/15 04:31:54;;;;;;;0.10;0.10;;;8.50;99.90;;;;;;4990216;28;20694;-69
2022/04/15 04:34:21;;;;;;;0.10;0.10;;;8.50;99.90;;;;;;4982269;28;20659;-70
2022/04/15 04:36:48;;;;;;;0.10;0.10;;;8.40;99.90;;;;;;4987599;28;20735;-69
2022/04/15 04:39:15;;;;;;;0.10;0.10;;;8.40;99.90;;;;;;4989602;28;20623;-69
2022/04/15 04:41:42;;;;;;;0.10;0.10;;;8.40;99.90;;;;;;4987799;28;20787;-70
2022/04/15 04:44:09;;;;;;;0.10;0.10;;;8.40;99.90;;;;;;4990877;28;20648;-68
2022/04/15 04:46:36;;;;;;;0.10;0.10;;;8.40;99.90;;;;;;4983643;28;20728;-69
2022/04/15 04:49:05;;;;;;;0.20;0.20;;;8.40;99.90;;;;;;4993601;28;20730;-70
2022/04/15 04:51:32;;;;;;;0.10;0.10;;;8.40;99.90;;;;;;4987010;28;20694;-70
2022/04/15 04:53:59;;;;;;;0.10;0.10;;;8.40;99.90;;;;;;4987628;28;20659;-70
2022/04/15 04:56:27;;;;;;;0.17;0.17;;;8.40;99.90;;;;;;4971083;28;20684;-70
2022/04/15 04:58:54;;;;;;;0.10;0.10;;;8.40;99.90;;;;;;4985162;28;20620;-70
2022/04/15 05:01:21;;;;;;;0.10;0.10;;;8.40;99.90;;;;;;4970053;28;20640;-70
2022/04/15 05:03:48;;;;;;;0.10;0.10;;;8.40;99.90;;;;;;4987730;28;20749;-70
2022/04/15 05:06:17;;;;;;;0.10;0.10;;;8.40;99.90;;;;;;4979242;28;20655;-70
2022/04/15 05:08:44;;;;;;;0.10;0.10;;;8.40;99.90;;;;;;4969236;28;20627;-70
2022/04/15 05:11:11;;;;;;;0.10;0.10;;;8.30;99.90;;;;;;4980069;28;20636;-70
2022/04/15 05:13:39;;;;;;;0.20;0.20;;;8.30;99.90;;;;;;4974921;28;20722;-70
2022/04/15 05:16:06;;;;;;;0.10;0.10;;;8.30;99.90;;;;;;4985180;28;20746;-69
2022/04/15 05:18:34;;;;;;;0.10;0.10;;;8.30;99.90;;;;;;4988072;28;20628;-70
2022/04/15 05:21:02;;;;;;;0.10;0.10;;;8.30;99.90;;;;;;4968410;28;20620;-70
2022/04/15 05:23:30;;;;;;;0.10;0.10;;;8.30;99.90;;;;;;4982497;28;20666;-70
2022/04/15 05:25:57;;;;;;;0.13;0.13;;;8.30;99.90;;;;;;4969082;28;20740;-69
2022/04/15 05:28:24;;;;;;;0.10;0.10;;;8.30;99.90;;;;;;4966148;28;20703;-70
2022/04/15 05:30:52;;;;;;;0.10;0.10;;;8.30;99.90;;;;;;4968079;28;20643;-70
2022/04/15 05:33:19;;;;;;;0.10;0.10;;;8.30;99.90;;;;;;4983034;28;20688;-69
2022/04/15 05:35:46;;;;;;;0.13;0.13;;;8.30;99.90;;;;;;4982601;28;20723;-69
2022/04/15 05:38:13;;;;;;;0.10;0.10;;;8.40;99.90;;;;;;4971646;28;20636;-70
2022/04/15 05:40:42;;;;;;;0.17;0.17;;;8.40;99.90;;;;;;4984800;28;20652;-69
2022/04/15 05:43:09;;;;;;;0.20;0.20;;;8.40;99.90;;;;;;4983700;28;20648;-70
2022/04/15 05:45:36;;;;;;;0.10;0.10;;;8.40;99.90;;;;;;4982011;28;20602;-69
2022/04/15 05:48:03;;;;;;;0.10;0.10;;;8.40;99.90;;;;;;4983006;28;20638;-69
2022/04/15 05:50:30;;;;;;;0.10;0.10;;;8.50;99.90;;;;;;4980547;28;20695;-69
2022/04/15 05:52:57;;;;;;;0.10;0.10;;;8.50;99.90;;;;;;4982071;28;20621;-70
2022/04/15 05:55:24;;;;;;;0.10;0.10;;;8.40;99.90;;;;;;4983116;28;20733;-69
2022/04/15 05:57:53;;;;;;;0.10;0.10;;;8.50;99.90;;;;;;4981687;28;20623;-70
2022/04/15 06:00:21;;;;;;;0.10;0.10;;;8.50;99.90;;;;;;4966762;28;20636;-67
2022/04/15 06:02:48;;;;;;;0.10;0.10;;;8.50;99.90;;;;;;4965612;28;20636;-68
2022/04/15 06:05:15;;;;;;;0.10;0.10;;;8.50;99.90;;;;;;4982033;28;20625;-66
2022/04/15 06:07:42;;;;;;;0.10;0.10;;;8.50;99.90;;;;;;4982382;28;21231;-68
2022/04/15 06:10:10;;;;;;;0.10;0.10;;;8.50;99.90;;;;;;4982199;28;20644;-69
2022/04/15 06:15:22;;;;;;;0.10;0.10;;;8.60;99.90;;;;;;4981358;28;20649;-74
2022/04/15 06:17:50;;;;;;;0.10;0.10;;;8.60;99.90;;;;;;4971631;28;20620;-69
2022/04/15 06:20:17;;;;;;;0.10;0.10;;;8.60;99.90;;;;;;4960406;28;20633;-68
2022/04/15 06:22:44;;;;;;;0.10;0.10;;;8.60;99.90;;;;;;4986455;28;20636;-66
2022/04/15 06:25:11;;;;;;;0.10;0.10;;;8.60;99.90;;;;;;4982192;28;20621;-69
2022/04/15 06:27:38;;;;;;;0.20;0.20;;;8.60;99.90;;;;;;4965733;28;20674;-68
2022/04/15 06:30:08;;;;;;;0.10;0.10;;;8.70;99.90;;;;;;4987595;28;20622;-68
2022/04/15 06:32:36;;;;;;;0.10;0.10;;;8.70;99.90;;;;;;4985854;28;20636;-69
2022/04/15 06:35:04;;;;;;;0.10;0.10;;;8.70;99.90;;;;;;4986159;28;20680;-73
2022/04/15 06:37:31;;;;;;;0.10;0.10;;;8.70;99.90;;;;;;4984949;28;20628;-73
2022/04/15 06:39:58;;;;;;;0.10;0.10;;;8.80;99.90;;;;;;4989825;28;20663;-75
2022/04/15 06:42:27;;;;;;;0.20;0.20;;;8.80;99.90;;;;;;4986853;28;20648;-72
2022/04/15 06:44:54;;;;;;;0.13;0.13;;;8.80;99.90;;;;;;4985373;28;20742;-72
2022/04/15 06:47:21;;;;;;;0.10;0.10;;;8.80;99.90;;;;;;4978762;28;20671;-74
2022/04/15 06:49:50;;;;;;;0.10;0.10;;;8.90;99.90;;;;;;4982703;28;20628;-73
2022/04/15 06:52:18;;;;;;;0.10;0.10;;;8.90;99.90;;;;;;4968075;28;20632;-74
2022/04/15 06:54:45;;;;;;;0.10;0.10;;;9.00;99.90;;;;;;4985783;28;20672;-68
2022/04/15 06:57:12;;;;;;;0.10;0.10;;;9.00;99.90;;;;;;4988317;28;20662;-67
2022/04/15 06:59:40;;;;;;;0.10;0.10;;;9.10;99.90;;;;;;4981864;28;20639;-68
2022/04/15 07:02:07;;;;;;;0.10;0.10;;;9.10;99.90;;;;;;4967511;28;20641;-67
2022/04/15 07:04:35;;;;;;;0.10;0.10;;;9.10;99.90;;;;;;4986680;28;20659;-67
2022/04/15 07:07:04;;;;;;;0.10;0.10;;;9.20;99.90;;;;;;4980021;28;20659;-66
2022/04/15 07:09:31;;;;;;;0.10;0.10;;;9.20;99.90;;;;;;4962754;28;20716;-66
2022/04/15 07:11:58;;;;;;;0.10;0.10;;;9.20;99.90;;;;;;4979826;28;20624;-68
2022/04/15 07:14:26;;;;;;;0.20;0.20;;;9.20;99.90;;;;;;4981509;28;20663;-67
2022/04/15 07:16:53;;;;;;;0.10;0.10;;;9.10;99.90;;;;;;4982519;28;20652;-71
2022/04/15 07:19:21;;;;;;;0.10;0.10;;;9.10;99.90;;;;;;4980915;23;20683;-74
2022/04/15 07:21:49;;;;;;;0.10;0.10;;;9.20;99.90;;;;;;4986777;28;20624;-74
2022/04/15 07:24:17;;;;;;;0.10;0.10;;;9.30;99.90;;;;;;4990549;28;20640;-74
2022/04/15 07:26:44;;;;;;;0.10;0.10;;;9.30;99.90;;;;;;5004434;28;20643;-74
2022/04/15 07:29:12;;;;;;;0.10;0.10;;;9.40;99.90;;;;;;5006258;28;20611;-73
2022/04/15 07:31:40;;;;;;;0.10;0.10;;;9.50;99.90;;;;;;5004356;28;20661;-73
2022/04/15 07:34:07;;;;;;;0.13;0.13;;;9.50;99.90;;;;;;4988420;28;20624;-73
2022/04/15 07:36:45;;;;;;;0.10;0.10;;;9.50;99.90;;;;;;4985542;28;20751;-73
2022/04/15 07:39:14;;;;;;;0.10;0.10;;;9.50;99.90;;;;;;4982216;28;20650;-73
2022/04/15 07:41:45;;;;;;;0.17;0.17;;;9.50;99.90;;;;;;5009965;23;20695;-69
2022/04/15 07:44:13;;;;;;;0.10;0.10;;;9.60;99.90;;;;;;5004643;28;20615;-69
2022/04/15 07:46:41;;;;;;;0.10;0.10;;;9.60;99.90;;;;;;5011674;28;20635;-68
2022/04/15 07:49:09;;;;;;;0.10;0.10;;;9.60;99.90;;;;;;5006740;28;20706;-68
2022/04/15 07:51:37;;;;;;;0.10;0.10;;;9.60;99.90;;;;;;4999157;28;20631;-70
2022/04/15 07:54:05;;;;;;;0.10;0.10;;;9.70;99.90;;;;;;5021497;28;20646;-68
2022/04/15 07:56:38;;;;;;;0.20;0.20;;;9.70;99.90;;;;;;5016495;23;20687;-87
2022/04/15 07:59:08;;;;;;;0.10;0.10;;;9.80;99.90;;;;;;4988515;28;20659;-87
2022/04/15 08:01:35;;;;;;;0.10;0.10;;;9.80;99.90;;;;;;4989270;28;20630;-85
2022/04/15 08:04:02;;;;;;;0.10;0.10;;;9.80;99.90;;;;;;5004041;28;20639;-89
2022/04/15 08:06:30;;;;;;;0.10;0.10;;;9.90;99.90;;;;;;4976840;28;20712;-87
2022/04/15 08:09:00;;;;;;;0.17;0.17;;;9.90;99.90;;;;;;5023746;23;20723;-69
2022/04/15 08:11:28;;;;;;;0.10;0.10;;;9.90;99.90;;;;;;5017654;28;20647;-69
2022/04/15 08:13:56;;;;;;;0.10;0.10;;;9.90;99.90;;;;;;4999319;28;20618;-69
2022/04/15 08:16:25;;;;;;;0.10;0.10;;;9.90;99.90;;;;;;4992800;28;20672;-69
2022/04/15 08:18:54;;;;;;;0.10;0.10;;;9.90;99.90;;;;;;5001021;28;20624;-68
2022/04/15 08:21:21;;;;;;;0.10;0.10;;;10.00;99.90;;;;;;4984263;28;20608;-69
2022/04/15 08:23:48;;;;;;;0.10;0.10;;;9.90;99.90;;;;;;4983647;28;20613;-69
2022/04/15 08:26:15;;;;;;;0.10;0.10;;;9.90;99.90;;;;;;4989844;28;20660;-69
2022/04/15 08:28:42;;;;;;;0.10;0.10;;;9.90;99.90;;;;;;4984794;28;20636;-69
2022/04/15 08:31:10;;;;;;;0.13;0.13;;;9.90;99.90;;;;;;4990587;28;20722;-69
2022/04/15 08:33:38;;;;;;;0.10;0.10;;;9.90;99.90;;;;;;4998838;28;20682;-69
2022/04/15 08:36:05;;;;;;;0.10;0.10;;;10.00;99.90;;;;;;4986178;28;20664;-69
2022/04/15 08:38:33;;;;;;;0.10;0.10;;;10.00;99.90;;;;;;4984730;28;20628;-70
2022/04/15 08:41:01;;;;;;;0.10;0.10;;;10.00;99.90;;;;;;4980556;28;20624;-68
2022/04/15 08:43:29;;;;;;;0.10;0.10;;;10.00;99.90;;;;;;4982158;28;20792;-68
2022/04/15 08:45:57;;;;;;;0.10;0.10;;;10.00;99.90;;;;;;4996060;28;20646;-68
2022/04/15 08:48:27;;;;;;;0.10;0.10;;;10.10;99.90;;;;;;4983507;28;20691;-69
2022/04/15 08:50:59;;;;;;;0.10;0.10;;;10.10;99.90;;;;;;4981082;28;20720;-69
2022/04/15 08:53:30;;;;;;;0.10;0.10;;;10.20;99.90;;;;;;4982043;28;20198;-68
2022/04/15 08:56:00;;;;;;;0.20;0.20;;;10.30;99.90;;;;;;5001526;28;20698;-70
2022/04/15 08:58:28;;;;;;;0.10;0.10;;;10.30;99.90;;;;;;4981270;28;20628;-69
2022/04/15 09:00:57;;;;;;;0.10;0.10;;;10.40;99.90;;;;;;4989978;28;20629;-69
2022/04/15 09:03:26;;;;;;;0.10;0.10;;;10.50;99.90;;;;;;4984925;28;20619;-68
2022/04/15 09:05:55;;;;;;;0.10;0.10;;;10.50;99.90;;;;;;4987877;28;20749;-68
2022/04/15 09:08:23;;;;;;;0.10;0.10;;;10.50;99.90;;;;;;4987604;28;20695;-69
2022/04/15 09:10:59;;;;;;;0.10;0.10;;;10.50;99.90;;;;;;4987508;28;20200;-69
2022/04/15 09:13:31;;;;;;;0.10;0.10;;;10.50;99.90;;;;;;5002770;28;20229;-69
2022/04/15 09:16:01;;;;;;;0.10;0.10;;;10.50;99.90;;;;;;4992428;28;20299;-68
2022/04/15 09:18:31;;;;;;;0.10;0.10;;;10.40;99.90;;;;;;4999307;28;20245;-69
2022/04/15 09:21:20;;;;;;;0.10;0.10;;;10.30;99.90;;;;;;4984885;28;20287;-70
2022/04/15 09:23:49;;;;;;;0.10;0.10;;;10.30;99.90;;;;;;4983671;28;20202;-70
2022/04/15 09:26:16;;;;;;;0.10;0.10;;;10.30;99.90;;;;;;4983624;28;20688;-69
2022/04/15 09:28:44;;;;;;;0.10;0.10;;;10.30;99.90;;;;;;4988326;28;20198;-69
2022/04/15 09:31:13;;;;;;;0.10;0.10;;;10.40;99.90;;;;;;4985563;28;20647;-69
2022/04/15 09:33:54;;;;;;;0.10;0.10;;;10.50;99.90;;;;;;4992430;28;20209;-71
2022/04/15 09:36:27;;;;;;;0.10;0.10;;;10.50;99.90;;;;;;4982935;28;20323;-69
2022/04/15 09:39:10;;;;;;;0.10;0.10;;;10.50;99.90;;;;;;4990744;28;20201;-69
2022/04/15 09:41:42;;;;;;;0.10;0.10;;;10.60;99.90;;;;;;4982793;28;20276;-69
2022/04/15 09:44:13;;;;;;;0.10;0.10;;;10.70;99.90;;;;;;4977004;28;20238;-69
2022/04/15 09:46:44;;;;;;;0.10;0.10;;;10.80;99.90;;;;;;4987374;28;20213;-70
2022/04/15 09:49:12;;;;;;;0.10;0.10;;;10.80;99.90;;;;;;4985731;28;20197;-69
2022/04/15 09:51:43;;;;;;;0.10;0.10;;;10.80;99.90;;;;;;4986419;28;20736;-68
2022/04/15 09:54:12;;;;;;;0.10;0.10;;;10.80;99.90;;;;;;5002527;28;20208;-70
2022/04/15 09:56:42;;;;;;;0.10;0.10;;;10.80;99.90;;;;;;4985401;28;20230;-69
2022/04/15 09:59:12;;;;;;;0.10;0.10;;;10.90;99.90;;;;;;4988111;28;20208;-70
2022/04/15 10:01:45;;;;;;;0.10;0.10;;;10.80;99.90;;;;;;4978861;28;20205;-71
2022/04/15 10:04:13;;;;;;;0.10;0.10;;;10.90;99.90;;;;;;4982567;28;20201;-69
2022/04/15 10:06:43;;;;;;;0.10;0.10;;;11.00;99.90;;;;;;4999238;28;20221;-69
2022/04/15 10:09:14;;;;;;;0.10;0.10;;;11.10;99.90;;;;;;4984368;28;20213;-68
2022/04/15 10:11:43;;;;;;;0.10;0.10;;;11.20;99.90;;;;;;4988083;28;20276;-71
2022/04/15 10:14:11;;;;;;;0.10;0.10;;;11.20;99.90;;;;;;5001788;28;20264;-71
2022/04/15 10:16:39;;;;;;;0.10;0.10;;;11.20;99.90;;;;;;5001932;28;20219;-69
2022/04/15 10:19:07;;;;;;;0.10;0.10;;;11.20;99.90;;;;;;4982999;28;20229;-70
2022/04/15 10:21:37;;;;;;;0.10;0.10;;;11.20;99.90;;;;;;4984932;28;20207;-69
2022/04/15 10:24:08;;;;;;;0.10;0.10;;;11.10;99.90;;;;;;4980719;28;20296;-70
2022/04/15 10:26:39;;;;;;;0.10;0.10;;;11.10;99.90;;;;;;4984870;28;20221;-68
2022/04/15 10:29:06;;;;;;;0.10;0.10;;;11.00;99.90;;;;;;4976489;28;20197;-69
2022/04/15 10:31:42;;;;;;;0.10;0.10;;;11.00;99.90;;;;;;4988195;28;20290;-70
2022/04/15 10:34:14;;;;;;;0.10;0.10;;;11.00;99.90;;;;;;4987683;28;20204;-69
2022/04/15 10:36:45;;;;;;;0.10;0.10;;;11.00;99.90;;;;;;4986228;28;20316;-70
2022/04/15 10:39:19;;;;;;;0.10;0.10;;;11.00;99.90;;;;;;4977317;28;20205;-70
2022/04/15 10:42:05;;;;;;;0.10;0.10;;;11.00;99.90;;;;;;4978511;28;20263;-69
2022/04/15 10:44:36;;;;;;;0.10;0.10;;;11.00;99.90;;;;;;4995065;28;20622;-69
2022/04/15 10:47:13;;;;;;;0.10;0.10;;;11.00;99.90;;;;;;4985198;28;20751;-70
2022/04/15 10:49:52;;;;;;;0.00;0.00;;;11.00;99.90;;;;;;4989789;28;20212;-69
2022/04/15 10:52:24;;;;;;;0.10;0.10;;;11.00;99.90;;;;;;4980230;28;20212;-70
2022/04/15 10:54:54;;;;;;;0.10;0.10;;;11.10;99.90;;;;;;4994089;28;20265;-71
2022/04/15 10:57:22;;;;;;;0.10;0.10;;;11.10;99.90;;;;;;4980030;28;20778;-69
2022/04/15 11:02:38;;;;;;;0.10;0.10;;;11.10;99.90;;;;;;4997036;28;20198;-69
2022/04/15 11:05:06;;;;;;;0.10;0.10;;;11.10;99.90;;;;;;4986421;28;20213;-68
2022/04/15 11:07:47;;;;;;;0.10;0.10;;;11.20;99.90;;;;;;4981420;28;20205;-68
2022/04/15 11:10:44;;;;;;;0.10;0.10;;;11.20;99.90;;;;;;4994376;28;20287;-69
2022/04/15 11:13:27;;;;;;;0.10;0.10;;;11.20;99.90;;;;;;4984906;28;20289;-69
2022/04/15 11:15:55;;;;;;;0.10;0.10;;;11.30;99.90;;;;;;4998982;28;20218;-70
2022/04/15 11:18:22;;;;;;;0.10;0.10;;;11.20;99.90;;;;;;4979988;28;20232;-69
2022/04/15 11:20:49;;;;;;;0.10;0.10;;;11.20;99.90;;;;;;4979365;28;20288;-69
2022/04/15 11:23:16;;;;;;;0.10;0.10;;;11.20;99.90;;;;;;4977996;28;20193;-69
2022/04/15 11:25:45;;;;;;;0.10;0.10;;;11.20;99.90;;;;;;4987403;28;20229;-68
2022/04/15 11:28:12;;;;;;;0.10;0.10;;;11.20;99.90;;;;;;4988261;28;20221;-67
2022/04/15 11:30:39;;;;;;;0.10;0.10;;;11.10;99.90;;;;;;4987244;28;20242;-69
2022/04/15 11:33:07;;;;;;;0.10;0.10;;;11.20;99.90;;;;;;4984888;28;20197;-71
2022/04/15 11:35:35;;;;;;;0.10;0.10;;;11.20;99.90;;;;;;4992635;28;20229;-70
2022/04/15 11:38:08;;;;;;;0.10;0.10;;;11.40;99.90;;;;;;4988592;28;20224;-69
2022/04/15 11:40:36;;;;;;;0.10;0.10;;;11.60;99.90;;;;;;4984786;28;20205;-69
2022/04/15 11:43:08;;;;;;;0.10;0.10;;;11.70;99.90;;;;;;4979649;28;20209;-69
2022/04/15 11:45:37;;;;;;;0.10;0.10;;;11.90;99.90;;;;;;4989572;28;20292;-69
2022/04/15 11:48:18;;;;;;;0.10;0.10;;;11.90;99.90;;;;;;4985344;28;20208;-68
2022/04/15 11:50:45;;;;;;;0.10;0.10;;;11.90;99.90;;;;;;4997799;28;20208;-70
2022/04/15 11:53:13;;;;;;;0.00;0.00;;;11.80;99.90;;;;;;4982992;28;20260;-69
2022/04/15 11:55:55;;;;;;;0.10;0.10;;;11.80;99.90;;;;;;4983268;28;20227;-69
2022/04/15 11:58:24;;;;;;;0.03;0.03;;;11.70;99.90;;;;;;4982521;28;20252;-70
2022/04/15 12:00:52;;;;;;;0.10;0.10;;;11.60;99.90;;;;;;4997683;28;20300;-69
2022/04/15 12:03:20;;;;;;;0.10;0.10;;;11.50;99.90;;;;;;4998496;28;20280;-70
2022/04/15 12:05:47;;;;;;;0.10;0.10;;;11.50;99.90;;;;;;4985257;28;20236;-69
2022/04/15 12:08:15;;;;;;;0.10;0.10;;;11.40;99.90;;;;;;4982744;28;20268;-69
2022/04/15 12:10:44;;;;;;;0.10;0.10;;;11.40;99.90;;;;;;4981660;28;20225;-70
2022/04/15 12:13:11;;;;;;;0.10;0.10;;;11.30;99.90;;;;;;4979387;28;20202;-69
2022/04/15 12:15:39;;;;;;;0.10;0.10;;;11.30;99.90;;;;;;4980452;28;20225;-69
2022/04/15 12:18:07;;;;;;;0.10;0.10;;;11.30;99.90;;;;;;4979391;28;20226;-69
2022/04/15 12:20:37;;;;;;;0.07;0.07;;;11.30;99.90;;;;;;4978292;28;20221;-69
2022/04/15 12:23:06;;;;;;;0.10;0.10;;;11.30;99.90;;;;;;4984407;28;20193;-69
2022/04/15 12:30:57;;;;;;;0.00;0.00;;;11.30;99.90;;;;;;4984126;28;20197;-69
2022/04/15 12:33:24;;;;;;;0.10;0.10;;;11.40;99.90;;;;;;4989443;28;20224;-68
2022/04/15 12:36:02;;;;;;;0.00;0.00;;;11.60;99.90;;;;;;4986080;28;20232;-69
2022/04/15 12:38:30;;;;;;;0.00;0.00;;;11.70;99.90;;;;;;4984467;28;20229;-67
2022/04/15 12:41:01;;;;;;;0.10;0.10;;;11.80;99.90;;;;;;4988447;28;20252;-68
2022/04/15 12:43:29;;;;;;;0.10;0.10;;;11.90;99.90;;;;;;4987102;28;20202;-68
2022/04/15 12:45:58;;;;;;;0.10;0.10;;;12.00;99.90;;;;;;5004442;28;20240;-69
2022/04/15 12:48:25;;;;;;;0.00;0.00;;;12.00;99.90;;;;;;4992820;28;20284;-69
2022/04/15 12:50:58;;;;;;;0.10;0.10;;;12.10;99.90;;;;;;4989926;28;20209;-69
2022/04/15 12:53:27;;;;;;;0.10;0.10;;;12.10;99.90;;;;;;5001875;28;20285;-70
2022/04/15 12:56:07;;;;;;;0.00;0.00;;;12.20;99.90;;;;;;4985505;28;20209;-69
2022/04/15 12:58:34;;;;;;;0.10;0.10;;;12.20;99.90;;;;;;4982591;28;20619;-68
2022/04/15 13:01:03;;;;;;;0.10;0.10;;;12.10;99.90;;;;;;4986996;28;20193;-69
2022/04/15 13:03:34;;;;;;;0.00;0.00;;;12.10;99.90;;;;;;4983491;28;20209;-71
2022/04/15 13:06:02;;;;;;;0.10;0.10;;;12.00;99.90;;;;;;4984898;28;20226;-69
2022/04/15 13:08:29;;;;;;;0.10;0.10;;;12.00;99.90;;;;;;5001794;28;20321;-69
2022/04/15 13:10:56;;;;;;;0.10;0.10;;;11.90;99.90;;;;;;4987779;28;20263;-69
2022/04/15 13:13:23;;;;;;;0.10;0.10;;;11.90;99.90;;;;;;4987635;28;20205;-68
2022/04/15 13:15:51;;;;;;;0.10;0.10;;;11.90;99.90;;;;;;4985601;28;20231;-69
2022/04/15 13:18:19;;;;;;;0.00;0.00;;;11.80;99.90;;;;;;4988501;28;20300;-69